Time;durP1;ratioP1;P1;durP2;ratioP2;P2;SDS_P1;SDS_P2;PMS_P1;PMS_P2;Temp;Humidity;BMP_temperature;BMP_pressure;BME280_temperature;BME280_humidity;BME280_pressure;Samples;Min_cycle;Max_cycle;Signal;HPM_P1;HPM_P2
2021/07/30 00:02:13;;;;;;;0.40;0.20;;;;;;;15.41;100.00;99861.81;4974377;28;20454;-54
2021/07/30 00:04:40;;;;;;;0.40;0.20;;;;;;;15.38;100.00;99869.16;4974602;28;20525;-53
2021/07/30 00:07:07;;;;;;;0.40;0.20;;;;;;;15.24;100.00;99863.72;4974567;28;20474;-53
2021/07/30 00:09:33;;;;;;;0.40;0.20;;;;;;;15.21;100.00;99867.38;4974364;28;21022;-53
2021/07/30 00:12:00;;;;;;;2.60;1.27;;;;;;;15.49;100.00;99864.09;4974411;28;20501;-53
2021/07/30 00:14:26;;;;;;;1.33;1.23;;;;;;;15.35;100.00;99861.28;4974211;28;20458;-53
2021/07/30 00:16:53;;;;;;;3.77;1.03;;;;;;;15.51;100.00;99859.50;4974175;28;20988;-52
2021/07/30 00:19:20;;;;;;;0.40;0.20;;;;;;;15.61;99.83;99858.03;4974341;28;20481;-53
2021/07/30 00:21:46;;;;;;;0.40;0.20;;;;;;;15.34;100.00;99859.56;4973674;28;20457;-53
2021/07/30 00:24:13;;;;;;;0.40;0.20;;;;;;;15.21;100.00;99869.19;4973976;28;20522;-53
2021/07/30 00:26:40;;;;;;;0.40;0.20;;;;;;;15.29;100.00;99865.16;4974228;28;20536;-53
2021/07/30 00:29:06;;;;;;;0.40;0.20;;;;;;;15.26;100.00;99853.78;4973894;28;20474;-53
2021/07/30 00:31:33;;;;;;;0.40;0.20;;;;;;;15.34;100.00;99867.59;4974389;28;20476;-52
2021/07/30 00:34:00;;;;;;;0.47;0.33;;;;;;;15.17;100.00;99865.84;4972891;28;20447;-53
2021/07/30 00:36:26;;;;;;;0.40;0.20;;;;;;;15.14;100.00;99860.66;4974173;28;20454;-53
2021/07/30 00:38:53;;;;;;;0.40;0.30;;;;;;;15.10;100.00;99854.59;4974677;28;20809;-52
2021/07/30 00:41:19;;;;;;;0.40;0.20;;;;;;;15.02;100.00;99855.97;4974041;28;20503;-52
2021/07/30 00:43:46;;;;;;;0.40;0.20;;;;;;;14.91;100.00;99850.31;4973565;28;20526;-52
2021/07/30 00:46:13;;;;;;;0.40;0.20;;;;;;;14.93;100.00;99859.13;4973914;28;20454;-51
2021/07/30 00:48:40;;;;;;;0.40;0.40;;;;;;;14.67;100.00;99856.03;4973794;28;20458;-52
2021/07/30 00:51:07;;;;;;;0.40;0.20;;;;;;;14.70;100.00;99855.88;4973570;28;20450;-51
2021/07/30 00:53:34;;;;;;;0.50;0.40;;;;;;;14.64;100.00;99858.84;4973620;28;20959;-51
2021/07/30 00:56:01;;;;;;;0.40;0.20;;;;;;;14.63;100.00;99867.81;4970885;28;20455;-52
2021/07/30 00:58:30;;;;;;;0.40;0.20;;;;;;;14.73;100.00;99852.16;4973293;28;20544;-52
2021/07/30 01:00:57;;;;;;;0.40;0.30;;;;;;;14.74;100.00;99862.78;4973880;28;20510;-51
2021/07/30 01:03:24;;;;;;;0.40;0.20;;;;;;;14.88;100.00;99862.06;4973508;28;20450;-51
2021/07/30 01:05:51;;;;;;;0.40;0.20;;;;;;;14.94;100.00;99861.75;4973677;28;20454;-52
2021/07/30 01:08:18;;;;;;;0.40;0.20;;;;;;;14.58;100.00;99861.00;4973579;28;20896;-52
2021/07/30 01:10:45;;;;;;;0.40;0.20;;;;;;;14.57;100.00;99868.16;4973402;28;20501;-52
2021/07/30 01:13:12;;;;;;;0.40;0.37;;;;;;;14.62;100.00;99865.22;4973481;28;20513;-51
2021/07/30 01:15:38;;;;;;;0.50;0.40;;;;;;;14.46;100.00;99860.66;4973374;28;20446;-51
2021/07/30 01:18:05;;;;;;;0.40;0.20;;;;;;;14.49;100.00;99860.50;4973655;28;20507;-52
2021/07/30 01:20:37;;;;;;;0.40;0.20;;;;;;;14.42;100.00;99858.22;4973489;28;20478;-52
2021/07/30 01:23:04;;;;;;;0.40;0.20;;;;;;;14.53;100.00;99861.25;4973551;28;20505;-51
2021/07/30 01:25:31;;;;;;;0.50;0.33;;;;;;;14.33;100.00;99861.34;4973853;28;21003;-52
2021/07/30 01:27:58;;;;;;;0.40;0.20;;;;;;;14.14;100.00;99858.75;4974337;28;20470;-51
2021/07/30 01:30:25;;;;;;;0.40;0.20;;;;;;;14.08;100.00;99859.91;4973801;28;20481;-51
2021/07/30 01:32:51;;;;;;;0.40;0.20;;;;;;;14.07;100.00;99854.63;4975802;28;20458;-52
2021/07/30 01:35:18;;;;;;;0.40;0.20;;;;;;;14.17;100.00;99847.91;4977776;28;20454;-51
2021/07/30 01:37:45;;;;;;;0.40;0.20;;;;;;;14.17;100.00;99855.91;4977491;28;20481;-51
2021/07/30 01:40:12;;;;;;;0.40;0.20;;;;;;;14.20;100.00;99845.91;4977197;28;20454;-51
2021/07/30 01:42:39;;;;;;;0.40;0.20;;;;;;;14.24;100.00;99858.19;4977431;28;20457;-50
2021/07/30 01:45:08;;;;;;;0.40;0.20;;;;;;;14.07;100.00;99857.31;4977149;28;20489;-51
2021/07/30 01:47:35;;;;;;;0.73;0.67;;;;;;;14.21;100.00;99855.66;4977009;28;20469;-52
2021/07/30 01:50:02;;;;;;;0.40;0.20;;;;;;;14.14;100.00;99851.59;4976605;28;20457;-51
2021/07/30 01:52:29;;;;;;;0.60;0.57;;;;;;;14.23;100.00;99856.47;4976817;28;20866;-51
2021/07/30 01:54:56;;;;;;;0.40;0.20;;;;;;;14.06;100.00;99852.91;4976786;28;20911;-52
2021/07/30 01:57:23;;;;;;;0.40;0.20;;;;;;;14.06;100.00;99855.59;4973751;28;20509;-51
2021/07/30 01:59:49;;;;;;;0.40;0.20;;;;;;;14.02;100.00;99856.69;4976792;28;20461;-52
2021/07/30 02:02:16;;;;;;;0.40;0.20;;;;;;;14.05;100.00;99852.03;4975651;28;20454;-51
2021/07/30 02:04:43;;;;;;;0.40;0.30;;;;;;;14.11;100.00;99853.53;4976599;28;20517;-51
2021/07/30 02:07:09;;;;;;;0.50;0.50;;;;;;;13.98;100.00;99849.72;4976506;28;20482;-51
2021/07/30 02:09:36;;;;;;;0.40;0.30;;;;;;;13.93;100.00;99855.31;4976522;28;20454;-51
2021/07/30 02:12:03;;;;;;;0.40;0.20;;;;;;;13.83;100.00;99851.34;4976659;28;21026;-52
2021/07/30 02:14:30;;;;;;;0.40;0.20;;;;;;;13.81;100.00;99853.25;4976677;28;20501;-51
2021/07/30 02:16:58;;;;;;;0.40;0.40;;;;;;;13.79;100.00;99853.31;4975244;28;20478;-51
2021/07/30 02:19:25;;;;;;;0.40;0.20;;;;;;;13.90;100.00;99858.16;4976206;28;20453;-52
2021/07/30 02:21:54;;;;;;;0.40;0.20;;;;;;;13.69;100.00;99859.19;4976378;28;20469;-51
2021/07/30 02:24:21;;;;;;;0.40;0.30;;;;;;;13.63;100.00;99855.00;4976280;28;20544;-51
2021/07/30 02:26:48;;;;;;;0.40;0.20;;;;;;;13.64;100.00;99846.06;4976180;28;20532;-50
2021/07/30 02:29:15;;;;;;;0.40;0.20;;;;;;;13.65;100.00;99845.13;4976117;28;20478;-52
2021/07/30 02:31:41;;;;;;;0.40;0.20;;;;;;;13.74;100.00;99849.16;4976187;28;20901;-51
2021/07/30 02:34:08;;;;;;;0.40;0.20;;;;;;;13.79;100.00;99841.78;4976036;28;20451;-52
2021/07/30 02:36:39;;;;;;;0.40;0.20;;;;;;;13.53;100.00;99835.88;4976112;28;20561;-51
2021/07/30 02:39:05;;;;;;;0.40;0.20;;;;;;;13.69;100.00;99838.69;4976316;28;20447;-51
2021/07/30 02:41:32;;;;;;;0.50;0.40;;;;;;;13.93;100.00;99836.63;4975833;28;20508;-51
2021/07/30 02:43:58;;;;;;;0.40;0.20;;;;;;;13.85;100.00;99837.00;4975175;28;21007;-51
2021/07/30 02:46:25;;;;;;;0.40;0.30;;;;;;;13.71;100.00;99842.16;4975812;28;20450;-51
2021/07/30 02:48:52;;;;;;;0.40;0.20;;;;;;;13.58;100.00;99833.00;4975800;28;20463;-52
2021/07/30 02:51:19;;;;;;;0.50;0.50;;;;;;;13.52;100.00;99838.63;4975578;28;20517;-51
2021/07/30 02:53:45;;;;;;;3.90;2.00;;;;;;;13.34;100.00;99832.38;4975956;28;20509;-51
2021/07/30 02:56:12;;;;;;;0.40;0.30;;;;;;;13.44;100.00;99836.34;4972243;28;20869;-51
2021/07/30 02:58:39;;;;;;;0.40;0.20;;;;;;;13.43;100.00;99831.06;4975782;28;20454;-51
2021/07/30 03:01:05;;;;;;;0.40;0.20;;;;;;;13.44;100.00;99831.00;4975580;28;20506;-52
2021/07/30 03:03:32;;;;;;;0.50;0.40;;;;;;;13.51;100.00;99828.88;4975502;28;20451;-51
2021/07/30 03:06:00;;;;;;;0.70;0.70;;;;;;;13.50;100.00;99827.16;4974417;28;20494;-51
2021/07/30 03:08:29;;;;;;;1.37;0.63;;;;;;;13.51;100.00;99826.22;4975738;28;20767;-51
2021/07/30 03:10:56;;;;;;;0.90;0.90;;;;;;;13.45;100.00;99823.84;4975507;28;20505;-51
2021/07/30 03:13:24;;;;;;;0.40;0.30;;;;;;;13.43;100.00;99823.94;4975501;28;20501;-51
2021/07/30 03:15:57;;;;;;;0.40;0.20;;;;;;;13.28;100.00;99819.28;4975252;28;20451;-52
2021/07/30 03:18:26;;;;;;;0.40;0.20;;;;;;;13.45;100.00;99815.84;4975236;28;20602;-51
2021/07/30 03:20:53;;;;;;;0.40;0.20;;;;;;;13.64;100.00;99822.03;4975369;28;20450;-51
2021/07/30 03:23:20;;;;;;;0.40;0.20;;;;;;;13.39;100.00;99813.47;4975169;28;20505;-51
2021/07/30 03:25:46;;;;;;;0.40;0.20;;;;;;;13.41;100.00;99819.59;4973951;28;20506;-51
2021/07/30 03:28:13;;;;;;;0.90;0.90;;;;;;;13.44;100.00;99806.97;4975041;28;20474;-51
2021/07/30 03:30:40;;;;;;;0.40;0.40;;;;;;;13.33;100.00;99814.63;4974880;28;20508;-51
2021/07/30 03:33:06;;;;;;;0.40;0.20;;;;;;;13.70;100.00;99818.16;4975486;28;20513;-51
2021/07/30 03:35:33;;;;;;;0.40;0.30;;;;;;;13.54;100.00;99810.03;4975134;28;20446;-53
2021/07/30 03:38:00;;;;;;;0.50;0.40;;;;;;;13.45;100.00;99808.72;4975252;28;21073;-51
2021/07/30 03:40:26;;;;;;;0.40;0.20;;;;;;;13.51;100.00;99807.53;4975279;28;20450;-51
2021/07/30 03:42:53;;;;;;;0.40;0.30;;;;;;;13.56;100.00;99805.50;4973884;28;20465;-51
2021/07/30 03:45:20;;;;;;;0.40;0.20;;;;;;;13.31;100.00;99812.03;4975385;28;20497;-51
2021/07/30 03:47:47;;;;;;;0.40;0.20;;;;;;;13.25;100.00;99808.78;4975220;28;20482;-50
2021/07/30 03:50:14;;;;;;;0.40;0.20;;;;;;;13.31;100.00;99813.84;4976967;28;20450;-51
2021/07/30 03:52:40;;;;;;;0.90;0.90;;;;;;;13.37;100.00;99807.34;4975648;28;20457;-52
2021/07/30 03:55:07;;;;;;;0.40;0.20;;;;;;;13.45;100.00;99806.03;4974161;28;20461;-51
2021/07/30 03:57:34;;;;;;;0.40;0.20;;;;;;;13.34;100.00;99811.00;4970602;28;20474;-51
2021/07/30 04:00:01;;;;;;;0.50;0.33;;;;;;;13.56;100.00;99803.69;4974438;28;21026;-51
2021/07/30 04:02:27;;;;;;;1.63;1.63;;;;;;;13.49;100.00;99817.44;4974388;28;20501;-51
2021/07/30 04:04:55;;;;;;;0.40;0.20;;;;;;;13.55;100.00;99815.31;4974102;28;20494;-52
2021/07/30 04:07:21;;;;;;;0.40;0.20;;;;;;;13.57;100.00;99808.13;4974582;28;20475;-51
2021/07/30 04:09:48;;;;;;;0.40;0.20;;;;;;;13.36;100.00;99809.13;4974080;28;20478;-51
2021/07/30 04:12:14;;;;;;;0.40;0.20;;;;;;;13.27;100.00;99807.75;4974203;28;20818;-51
2021/07/30 04:14:45;;;;;;;0.40;0.20;;;;;;;13.46;100.00;99814.91;4974427;28;20514;-51
2021/07/30 04:17:12;;;;;;;0.40;0.20;;;;;;;13.43;100.00;99813.25;4974392;28;20528;-53
2021/07/30 04:19:43;;;;;;;0.40;0.37;;;;;;;13.42;100.00;99819.50;4974099;28;20994;-52
2021/07/30 04:22:11;;;;;;;0.40;0.20;;;;;;;13.64;100.00;99824.69;4973902;28;20455;-52
2021/07/30 04:24:38;;;;;;;0.40;0.20;;;;;;;13.68;100.00;99823.59;4973880;28;20914;-51
2021/07/30 04:27:05;;;;;;;0.40;0.20;;;;;;;13.67;100.00;99821.88;4974052;28;20536;-51
2021/07/30 04:29:39;;;;;;;0.57;0.57;;;;;;;13.26;100.00;99827.38;4973808;28;20869;-51
2021/07/30 04:32:08;;;;;;;0.40;0.20;;;;;;;13.26;100.00;99827.38;4973986;28;20449;-50
2021/07/30 04:34:36;;;;;;;0.40;0.20;;;;;;;13.59;100.00;99827.59;4974323;28;20450;-51
2021/07/30 04:37:03;;;;;;;0.40;0.30;;;;;;;13.63;100.00;99823.81;4973474;28;21069;-51
2021/07/30 04:39:29;;;;;;;0.77;0.50;;;;;;;13.80;100.00;99828.34;4972791;28;20450;-52
2021/07/30 04:42:01;;;;;;;0.40;0.30;;;;;;;13.82;100.00;99828.25;4973807;28;20450;-51
2021/07/30 04:44:27;;;;;;;0.40;0.20;;;;;;;13.77;100.00;99822.28;4972597;28;20477;-51
2021/07/30 04:46:54;;;;;;;0.40;0.40;;;;;;;13.92;100.00;99826.88;4973624;28;21050;-51
2021/07/30 04:49:20;;;;;;;0.40;0.20;;;;;;;14.07;100.00;99818.09;4973732;28;21075;-52
2021/07/30 04:51:59;;;;;;;0.40;0.30;;;;;;;14.28;100.00;99825.97;4948031;28;20453;-52
2021/07/30 04:54:26;;;;;;;0.50;0.40;;;;;;;14.81;100.00;99817.84;4973700;28;20450;-52
2021/07/30 04:56:53;;;;;;;0.40;0.20;;;;;;;15.30;100.00;99815.16;4970882;28;20501;-52
2021/07/30 04:59:19;;;;;;;0.40;0.20;;;;;;;15.76;99.18;99815.25;4973622;28;20492;-51
2021/07/30 05:01:46;;;;;;;0.40;0.30;;;;;;;15.95;99.26;99814.13;4973532;28;20454;-52
2021/07/30 05:04:13;;;;;;;0.40;0.20;;;;;;;16.49;97.54;99808.25;4973330;28;20454;-51
2021/07/30 05:06:39;;;;;;;1.07;1.07;;;;;;;17.30;93.54;99804.09;4973280;28;20498;-51
2021/07/30 05:09:06;;;;;;;0.40;0.30;;;;;;;17.57;91.36;99805.94;4973247;28;20959;-52
2021/07/30 05:11:33;;;;;;;0.40;0.20;;;;;;;17.95;90.67;99806.97;4973636;28;20513;-52
2021/07/30 05:13:59;;;;;;;0.40;0.20;;;;;;;18.43;88.59;99806.47;4973310;28;20454;-51
2021/07/30 05:16:26;;;;;;;0.40;0.30;;;;;;;18.38;87.44;99806.78;4973391;28;20478;-53
2021/07/30 05:18:53;;;;;;;0.40;0.20;;;;;;;18.17;89.46;99808.25;4973202;28;20537;-52
2021/07/30 05:21:21;;;;;;;0.40;0.30;;;;;;;18.20;88.89;99816.09;4973591;28;20477;-52
2021/07/30 05:23:48;;;;;;;0.50;0.47;;;;;;;18.28;88.72;99816.44;4973337;28;21019;-52
2021/07/30 05:26:14;;;;;;;0.40;0.20;;;;;;;18.31;89.49;99814.41;4973599;28;20545;-52
2021/07/30 05:28:41;;;;;;;0.40;0.20;;;;;;;18.03;90.50;99815.41;4973293;28;20505;-52
2021/07/30 05:31:16;;;;;;;0.40;0.20;;;;;;;18.69;88.49;99810.09;4973359;28;20512;-52
2021/07/30 05:33:44;;;;;;;0.40;0.20;;;;;;;18.71;88.39;99809.00;4973262;28;20465;-52
2021/07/30 05:36:19;;;;;;;1.23;0.87;;;;;;;19.05;86.39;99812.00;4973130;28;20493;-51
2021/07/30 05:38:47;;;;;;;0.40;0.20;;;;;;;19.42;85.51;99818.31;4973148;28;20508;-52
2021/07/30 05:41:14;;;;;;;0.50;0.50;;;;;;;19.27;85.51;99801.41;4973232;28;20480;-52
2021/07/30 05:43:43;;;;;;;1.50;1.50;;;;;;;19.64;83.59;99804.16;4972882;28;20455;-53
2021/07/30 05:46:10;;;;;;;0.40;0.20;;;;;;;19.78;83.10;99804.84;4973149;28;20935;-53
2021/07/30 05:48:37;;;;;;;0.40;0.20;;;;;;;19.86;82.04;99809.66;4973162;28;20546;-52
2021/07/30 05:51:03;;;;;;;0.50;0.50;;;;;;;19.99;83.34;99804.22;4972647;28;20451;-52
2021/07/30 05:53:30;;;;;;;0.40;0.30;;;;;;;20.31;81.87;99802.66;4973031;28;20833;-53
2021/07/30 05:55:57;;;;;;;0.40;0.20;;;;;;;20.54;79.65;99794.63;4971213;28;20513;-52
2021/07/30 05:58:23;;;;;;;0.40;0.20;;;;;;;20.83;77.90;99793.22;4972354;28;20474;-53
2021/07/30 06:00:50;;;;;;;0.50;0.40;;;;;;;19.80;81.12;99797.50;4973191;28;20473;-53
2021/07/30 06:03:17;;;;;;;0.40;0.20;;;;;;;19.90;80.92;99799.53;4973083;28;20824;-52
2021/07/30 06:05:44;;;;;;;0.83;0.83;;;;;;;19.70;83.34;99796.47;4972876;28;20913;-53
2021/07/30 06:08:11;;;;;;;1.13;1.03;;;;;;;19.91;82.54;99785.91;4972879;28;20526;-53
2021/07/30 06:10:37;;;;;;;0.40;0.20;;;;;;;20.38;80.75;99787.69;4972791;28;20450;-55
2021/07/30 06:13:04;;;;;;;0.40;0.20;;;;;;;20.55;79.45;99785.53;4972745;28;20454;-52
2021/07/30 06:15:31;;;;;;;1.27;0.97;;;;;;;20.51;78.48;99781.34;4972670;28;20495;-53
2021/07/30 06:18:00;;;;;;;0.40;0.30;;;;;;;20.40;80.37;99785.72;4972740;28;20554;-54
2021/07/30 06:20:27;;;;;;;102.73;2.40;;;;;;;20.76;78.27;99781.16;4975049;28;20421;-53
2021/07/30 06:22:53;;;;;;;0.40;0.20;;;;;;;20.60;77.57;99783.34;4976298;28;20880;-53
2021/07/30 06:25:20;;;;;;;0.40;0.20;;;;;;;20.86;78.42;99782.16;4975969;28;20612;-54
2021/07/30 06:27:46;;;;;;;0.40;0.20;;;;;;;20.72;79.30;99782.41;4976062;28;20470;-52
2021/07/30 06:30:13;;;;;;;0.40;0.30;;;;;;;20.82;77.05;99774.41;4976123;28;20496;-52
2021/07/30 06:32:40;;;;;;;0.70;0.63;;;;;;;20.92;77.47;99773.56;4976235;28;20513;-52
2021/07/30 06:35:08;;;;;;;3.50;1.07;;;;;;;21.32;75.87;99777.63;4976025;28;20447;-52
2021/07/30 06:37:36;;;;;;;0.40;0.20;;;;;;;20.91;76.88;99777.25;4975048;28;20925;-52
2021/07/30 06:40:05;;;;;;;0.40;0.20;;;;;;;21.00;77.03;99770.25;4975623;28;20458;-54
2021/07/30 06:42:33;;;;;;;0.50;0.30;;;;;;;21.32;77.26;99774.94;4975898;28;20880;-52
2021/07/30 06:45:01;;;;;;;0.57;0.50;;;;;;;21.06;76.53;99779.69;4975843;28;20490;-52
2021/07/30 06:47:32;;;;;;;0.40;0.20;;;;;;;20.76;77.48;99780.31;4975849;28;20985;-52
2021/07/30 06:49:58;;;;;;;0.40;0.23;;;;;;;21.12;76.62;99777.38;4975188;28;20451;-52
2021/07/30 06:52:25;;;;;;;0.50;0.37;;;;;;;21.06;76.64;99777.84;4976235;28;20455;-53
2021/07/30 06:54:54;;;;;;;2.93;1.80;;;;;;;20.77;78.61;99779.31;4975550;28;20451;-52
2021/07/30 06:57:21;;;;;;;0.40;0.20;;;;;;;21.23;77.51;99771.09;4972592;28;20525;-53
2021/07/30 06:59:48;;;;;;;0.80;0.70;;;;;;;20.36;79.02;99776.13;4975836;28;20509;-52
2021/07/30 07:02:16;;;;;;;0.40;0.30;;;;;;;20.79;78.90;99774.66;4975708;28;20861;-52
2021/07/30 07:04:43;;;;;;;0.40;0.20;;;;;;;20.55;79.93;99770.19;4974249;28;20454;-52
2021/07/30 07:07:09;;;;;;;0.87;0.87;;;;;;;20.75;79.03;99760.53;4975338;28;20832;-52
2021/07/30 07:09:36;;;;;;;0.80;0.80;;;;;;;20.69;80.21;99764.56;4975671;28;20455;-52
2021/07/30 07:12:03;;;;;;;0.40;0.20;;;;;;;21.25;78.81;99761.94;4975664;28;20450;-53
2021/07/30 07:14:30;;;;;;;0.40;0.30;;;;;;;21.04;78.95;99760.91;4975262;28;20489;-52
2021/07/30 07:16:57;;;;;;;0.40;0.20;;;;;;;21.36;76.88;99765.56;4975341;28;20517;-52
2021/07/30 07:19:25;;;;;;;0.40;0.30;;;;;;;21.47;77.27;99761.00;4974011;28;20586;-52
2021/07/30 07:21:51;;;;;;;0.40;0.20;;;;;;;21.59;77.05;99754.59;4975002;28;20469;-52
2021/07/30 07:24:18;;;;;;;0.40;0.20;;;;;;;21.64;77.64;99753.34;4975075;28;20481;-53
2021/07/30 07:26:45;;;;;;;0.40;0.20;;;;;;;21.91;75.77;99763.72;4975115;28;20522;-53
2021/07/30 07:29:12;;;;;;;0.40;0.30;;;;;;;21.80;75.76;99759.22;4973829;28;20488;-52
2021/07/30 07:31:38;;;;;;;0.40;0.20;;;;;;;22.44;74.05;99762.75;4974686;28;21108;-51
2021/07/30 07:34:05;;;;;;;0.40;0.20;;;;;;;22.12;75.26;99765.50;4949459;28;20553;-52
2021/07/30 07:36:32;;;;;;;0.50;0.30;;;;;;;22.01;74.84;99759.25;4974577;28;20521;-52
2021/07/30 07:38:58;;;;;;;0.43;0.30;;;;;;;21.96;74.84;99758.78;4975259;28;20716;-54
2021/07/30 07:41:25;;;;;;;0.50;0.47;;;;;;;21.88;75.02;99756.72;4975083;28;20510;-53
2021/07/30 07:43:52;;;;;;;0.40;0.20;;;;;;;22.10;75.11;99758.50;4948861;28;20458;-52
2021/07/30 07:46:18;;;;;;;0.40;0.30;;;;;;;22.13;73.34;99760.94;4973469;28;20619;-52
2021/07/30 07:48:45;;;;;;;0.70;0.70;;;;;;;22.59;73.17;99752.41;4974472;28;20959;-52
2021/07/30 07:51:12;;;;;;;1.03;1.00;;;;;;;22.33;73.53;99748.41;4974463;28;20485;-53
2021/07/30 07:53:39;;;;;;;0.40;0.30;;;;;;;22.52;71.64;99750.41;4974528;28;21032;-53
2021/07/30 07:56:06;;;;;;;3.13;2.77;;;;;;;22.07;73.59;99750.66;4971560;28;20471;-53
2021/07/30 07:58:33;;;;;;;0.40;0.20;;;;;;;22.36;73.45;99749.03;4974337;28;21008;-53
2021/07/30 08:01:00;;;;;;;0.40;0.30;;;;;;;23.23;71.69;99744.06;4974489;28;20935;-53
2021/07/30 08:03:27;;;;;;;1.63;0.70;;;;;;;23.52;70.41;99740.56;4974251;28;20861;-52
2021/07/30 08:05:54;;;;;;;0.50;0.30;;;;;;;23.68;68.97;99731.91;4973967;28;21003;-53
2021/07/30 08:08:21;;;;;;;0.60;0.40;;;;;;;23.27;70.82;99734.63;4974198;28;20474;-53
2021/07/30 08:10:49;;;;;;;0.40;0.30;;;;;;;22.69;70.80;99726.25;4974401;28;20425;-52
2021/07/30 08:13:16;;;;;;;0.40;0.30;;;;;;;23.27;71.10;99726.50;4974344;28;20455;-52
2021/07/30 08:15:42;;;;;;;0.97;0.97;;;;;;;23.19;70.66;99725.50;4974003;28;20446;-53
2021/07/30 08:18:09;;;;;;;0.50;0.33;;;;;;;24.01;68.75;99717.06;4974192;28;20478;-52
2021/07/30 08:20:36;;;;;;;0.50;0.30;;;;;;;23.75;67.17;99714.06;4974514;28;20456;-52
2021/07/30 08:23:03;;;;;;;0.40;0.20;;;;;;;23.51;68.89;99718.00;4974203;28;20429;-52
2021/07/30 08:25:30;;;;;;;0.40;0.20;;;;;;;23.58;69.40;99719.19;4974016;28;20481;-52
2021/07/30 08:27:56;;;;;;;6.80;1.07;;;;;;;23.57;69.41;99712.06;4974512;28;20496;-53
2021/07/30 08:30:23;;;;;;;1.63;1.53;;;;;;;23.75;69.52;99714.91;4973788;28;20440;-53
2021/07/30 08:32:49;;;;;;;0.43;0.27;;;;;;;23.46;68.41;99717.56;4974022;28;20956;-53
2021/07/30 08:35:16;;;;;;;0.50;0.40;;;;;;;23.98;68.11;99710.03;4974095;28;20816;-53
2021/07/30 08:37:43;;;;;;;0.40;0.30;;;;;;;24.46;64.04;99706.44;4973755;28;20478;-53
2021/07/30 08:40:10;;;;;;;0.50;0.43;;;;;;;24.65;63.69;99702.81;4973501;28;20975;-53
2021/07/30 08:42:37;;;;;;;0.57;0.57;;;;;;;25.14;62.57;99698.91;4973182;28;20452;-52
2021/07/30 08:45:05;;;;;;;0.50;0.30;;;;;;;24.49;64.05;99698.84;4972357;28;20462;-53
2021/07/30 08:47:32;;;;;;;0.40;0.30;;;;;;;24.79;63.46;99700.47;4973852;28;20469;-53
2021/07/30 08:49:59;;;;;;;0.50;0.50;;;;;;;24.36;64.81;99702.88;4973412;28;20441;-53
2021/07/30 08:52:35;;;;;;;1.80;1.60;;;;;;;24.88;62.22;99698.72;4973897;28;20450;-53
2021/07/30 08:55:03;;;;;;;0.40;0.27;;;;;;;25.19;62.18;99695.72;4973776;28;20452;-53
2021/07/30 08:57:30;;;;;;;4.67;0.73;;;;;;;25.03;61.16;99704.53;4969590;28;20468;-54
2021/07/30 09:00:07;;;;;;;0.40;0.20;;;;;;;25.59;59.62;99698.03;4973405;28;20497;-53
2021/07/30 09:02:34;;;;;;;0.40;0.30;;;;;;;25.29;61.62;99696.53;4973698;28;20790;-53
2021/07/30 09:05:23;;;;;;;0.50;0.40;;;;;;;25.82;60.26;99677.56;4973620;28;20537;-53
2021/07/30 09:07:50;;;;;;;0.40;0.30;;;;;;;25.46;60.78;99690.25;4973291;28;20470;-54
2021/07/30 09:10:47;;;;;;;0.40;0.30;;;;;;;25.79;58.31;99687.91;4973438;28;20469;-53
2021/07/30 09:13:24;;;;;;;0.60;0.60;;;;;;;26.15;56.39;99672.38;4942807;28;20491;-54
2021/07/30 09:16:01;;;;;;;0.40;0.30;;;;;;;26.13;56.35;99671.69;4973335;28;20460;-53
2021/07/30 09:18:46;;;;;;;0.60;0.60;;;;;;;25.77;56.79;99682.63;4973376;28;20479;-54
2021/07/30 09:21:30;;;;;;;0.40;0.30;;;;;;;26.28;56.10;99678.25;4948702;28;20427;-54
2021/07/30 09:24:17;;;;;;;0.40;0.30;;;;;;;25.95;57.37;99680.75;4973530;28;21401;-54
2021/07/30 09:26:54;;;;;;;1.07;0.60;;;;;;;25.93;57.88;99679.19;4972037;28;20527;-54
2021/07/30 09:29:27;;;;;;;0.83;0.83;;;;;;;26.00;57.55;99672.09;4973502;28;20456;-54
2021/07/30 09:32:08;;;;;;;0.40;0.30;;;;;;;26.64;55.95;99681.78;4973269;28;20454;-54
2021/07/30 09:34:48;;;;;;;0.60;0.40;;;;;;;26.64;55.57;99667.28;4972345;28;21010;-53
2021/07/30 09:37:19;;;;;;;0.40;0.20;;;;;;;26.78;55.87;99667.53;4972928;28;20520;-54
2021/07/30 09:39:49;;;;;;;0.40;0.20;;;;;;;26.79;54.61;99662.94;4973495;28;20801;-54
2021/07/30 09:42:19;;;;;;;0.63;0.63;;;;;;;26.83;54.19;99659.69;4973187;28;20421;-54
2021/07/30 09:44:55;;;;;;;0.70;0.70;;;;;;;26.41;54.63;99650.63;4973102;28;20453;-54
2021/07/30 09:47:28;;;;;;;0.70;0.70;;;;;;;26.91;55.08;99641.69;4972957;28;20497;-54
2021/07/30 09:50:03;;;;;;;0.73;0.70;;;;;;;26.83;53.19;99643.34;4972931;28;20765;-54
2021/07/30 09:52:33;;;;;;;0.40;0.30;;;;;;;26.54;54.95;99640.97;4973124;28;20432;-54
2021/07/30 09:55:21;;;;;;;0.40;0.27;;;;;;;26.96;53.90;99637.41;4976477;28;20458;-54
2021/07/30 09:57:51;;;;;;;2.93;2.53;;;;;;;26.96;53.51;99636.56;4973847;28;20923;-54
2021/07/30 10:00:19;;;;;;;0.93;0.93;;;;;;;27.01;52.83;99636.97;4975642;28;20493;-54
2021/07/30 10:02:46;;;;;;;0.40;0.30;;;;;;;26.84;53.14;99636.00;4976872;28;20453;-54
2021/07/30 10:05:15;;;;;;;0.40;0.30;;;;;;;27.11;53.84;99624.03;4976801;28;20450;-54
2021/07/30 10:07:42;;;;;;;0.80;0.80;;;;;;;27.10;52.78;99623.16;4976377;28;20472;-54
2021/07/30 10:12:51;;;;;;;0.40;0.30;;;;;;;27.83;50.61;99616.16;4976398;28;20449;-54
2021/07/30 10:15:19;;;;;;;0.87;0.87;;;;;;;28.13;49.34;99611.84;4976506;28;20909;-55
2021/07/30 10:17:56;;;;;;;0.40;0.30;;;;;;;27.58;49.22;99607.91;4976209;28;20858;-54
2021/07/30 10:20:25;;;;;;;0.60;0.60;;;;;;;27.39;50.64;99609.06;4976333;28;20927;-53
2021/07/30 10:22:54;;;;;;;0.50;0.40;;;;;;;27.59;49.76;99606.91;4976184;28;20557;-54
2021/07/30 10:25:28;;;;;;;6.73;2.40;;;;;;;27.81;49.97;99604.53;4976296;28;20513;-54
2021/07/30 10:27:59;;;;;;;0.40;0.30;;;;;;;27.68;50.51;99591.38;4976048;28;20529;-54
2021/07/30 10:30:26;;;;;;;0.40;0.30;;;;;;;27.65;50.79;99592.56;4975906;28;20446;-54
2021/07/30 10:32:58;;;;;;;0.40;0.20;;;;;;;27.53;50.74;99601.25;4976143;28;20951;-54
2021/07/30 10:35:27;;;;;;;0.40;0.30;;;;;;;27.12;50.29;99590.25;4975746;28;20425;-54
2021/07/30 10:38:14;;;;;;;0.40;0.30;;;;;;;27.46;50.71;99601.09;4975893;28;20474;-55
2021/07/30 10:40:42;;;;;;;0.40;0.30;;;;;;;27.54;50.23;99590.16;4943954;28;20487;-53
2021/07/30 10:43:11;;;;;;;1.77;0.50;;;;;;;26.98;51.44;99599.06;4975732;28;20486;-54
2021/07/30 10:45:39;;;;;;;0.67;0.60;;;;;;;27.45;50.98;99583.00;4975850;28;20492;-54
2021/07/30 10:48:15;;;;;;;0.50;0.30;;;;;;;27.70;50.28;99584.75;4975356;28;20516;-54
2021/07/30 10:50:56;;;;;;;0.40;0.30;;;;;;;27.66;50.31;99582.50;4975483;28;20445;-54
2021/07/30 10:53:34;;;;;;;0.50;0.30;;;;;;;26.94;50.39;99575.88;4975691;28;20474;-54
2021/07/30 10:56:06;;;;;;;0.40;0.30;;;;;;;27.54;50.25;99573.75;4972755;28;20433;-54
2021/07/30 10:58:44;;;;;;;0.50;0.40;;;;;;;27.81;48.85;99574.47;4951357;28;20452;-54
2021/07/30 11:01:21;;;;;;;0.50;0.50;;;;;;;28.44;47.21;99569.09;4975618;28;21562;-54
2021/07/30 11:03:51;;;;;;;0.40;0.30;;;;;;;27.94;48.50;99566.59;4975936;28;20454;-53
2021/07/30 11:06:38;;;;;;;0.50;0.50;;;;;;;28.54;48.44;99567.00;4975198;28;20461;-54
2021/07/30 11:09:05;;;;;;;0.40;0.30;;;;;;;28.35;47.69;99566.53;4975591;28;20481;-54
2021/07/30 11:11:44;;;;;;;0.40;0.30;;;;;;;28.47;46.52;99570.59;4975466;28;20484;-54
2021/07/30 11:14:21;;;;;;;0.40;0.30;;;;;;;28.41;46.57;99574.06;4975277;28;20967;-53
2021/07/30 11:16:54;;;;;;;0.80;0.80;;;;;;;27.65;48.88;99576.19;4975290;28;20524;-54
2021/07/30 11:19:29;;;;;;;0.50;0.40;;;;;;;28.38;47.44;99575.28;4975281;28;20429;-54
2021/07/30 11:22:04;;;;;;;0.50;0.43;;;;;;;28.09;46.56;99562.13;4974225;28;20478;-54
2021/07/30 11:24:35;;;;;;;0.40;0.30;;;;;;;27.30;46.59;99560.97;4950786;28;20428;-54
2021/07/30 11:27:05;;;;;;;0.60;0.53;;;;;;;27.56;48.44;99558.09;4974834;28;20577;-54
2021/07/30 11:29:32;;;;;;;0.50;0.30;;;;;;;27.90;48.94;99562.53;4975052;28;20455;-54
2021/07/30 11:32:04;;;;;;;0.50;0.33;;;;;;;27.64;47.56;99551.78;4974931;28;20437;-54
2021/07/30 11:34:34;;;;;;;0.50;0.43;;;;;;;27.90;47.76;99557.91;4974273;28;20458;-54
2021/07/30 11:37:04;;;;;;;1.13;1.13;;;;;;;28.25;46.18;99555.78;4975560;28;20460;-54
2021/07/30 11:39:45;;;;;;;3.17;3.07;;;;;;;28.36;46.60;99544.50;4975663;28;20520;-54